This is the latest recevied weather packets stored in our database for station/object LRCT. If no packets are shown the sender has not sent any weather packets the latest 1 day(s).
| Time | Temp. | Humidity | Pressure | Rain* | Wind** | Luminosity | Snow |
|---|---|---|---|---|---|---|---|
| 1778027720 | 8.89° C | 66% | 1013 hPa | - | 2.24 m/s, 140° | - | - |
| 1778026737 | 8.89° C | 66% | 1013 hPa | - | 2.24 m/s, 140° | - | - |
| 1778025837 | 8.89° C | 66% | 1013 hPa | - | 2.24 m/s, 140° | - | - |
| 1778021337 | 12.22° C | 51% | 1013 hPa | - | 1.34 m/s, 310° | - | - |
| 1778020436 | 12.22° C | 51% | 1013 hPa | - | 1.34 m/s, 310° | - | - |
| 1778019534 | 12.22° C | 51% | 1013 hPa | - | 1.34 m/s, 310° | - | - |
| 1778018637 | 12.22° C | 51% | 1013 hPa | - | 1.34 m/s, 310° | - | - |
| 1778017737 | 12.22° C | 51% | 1013 hPa | - | 1.34 m/s, 310° | - | - |
| 1778016837 | 12.22° C | 51% | 1013 hPa | - | 0.89 m/s, 320° | - | - |
| 1778015936 | 12.22° C | 51% | 1013 hPa | - | 0.89 m/s, 320° | - | - |
| 1778015037 | 12.22° C | 51% | 1013 hPa | - | 0.89 m/s, 320° | - | - |
| 1778014139 | 12.22° C | 51% | 1013 hPa | - | 0.89 m/s, 320° | - | - |
| 1778013236 | 13.89° C | 44% | 1012 hPa | - | 1.34 m/s, 320° | - | - |
| 1778012368 | 13.89° C | 44% | 1012 hPa | - | 1.34 m/s, 320° | - | - |
| 1778011437 | 13.89° C | 44% | 1012 hPa | - | 1.34 m/s, 320° | - | - |
| 1778006937 | 20° C | 33% | 1012 hPa | - | 1.34 m/s, 160° | - | - |
| 1778006037 | 20° C | 33% | 1012 hPa | - | 1.34 m/s, 160° | - | - |
| 1778005134 | 20° C | 33% | 1012 hPa | - | 1.34 m/s, 160° | - | - |
| 1778004237 | 20° C | 33% | 1012 hPa | - | 1.34 m/s, 160° | - | - |
| 1778003331 | 22.78° C | 27% | 1012 hPa | - | 2.68 m/s, 170° | - | - |
| 1778002436 | 22.78° C | 27% | 1012 hPa | - | 2.68 m/s, 170° | - | - |
| 1778001536 | 22.78° C | 27% | 1012 hPa | - | 2.68 m/s, 170° | - | - |
| 1778000637 | 22.78° C | 27% | 1012 hPa | - | 2.68 m/s, 170° | - | - |
| 1777999736 | 25° C | 18% | 1012 hPa | - | 3.58 m/s, 150° | - | - |
| 1777998837 | 25° C | 18% | 1012 hPa | - | 3.58 m/s, 150° | - | - |
* Rain since midnight (hover to see other rain measurements)
** Current wind speed in m/s (hover to see current wind gust speed)